Pagina principală
METAR-TAF:

METAR-TAF

Aeroporturi :

Kingaroy, Australia

Latitudine: 26-34-48S, longitudine: 151-50-30E, elevație: 455 m

Observații meteo curente

Raportul a fost făcut în urmă cu 1 oră și 15 de minute, la 15:01 UTC
Vânt 6 kt de la Nord
Temperatură 23°C
Umiditate 89%
Presiune 1011 hPa
Vizibilitate de 10 km sau mai mult
Nori împrăștiați la o înălțime de 1200 picior
Nori împrăștiați la o înălțime de 2200 picior

METAR: YKRY 181501Z AUTO 01006KT 9999 // SCT012 SCT022 23/21 Q1011

Ora: 02:16 (16:16 UTC)


TAF: lipsă

Observații și prognoze meteo pentru peste 4.000 de aeroporturi (rapoarte METAR și TAF).

Stațiile disponibile sunt reprezentate pe hartă prin puncte galbene și roșii.

Țineți indicatorul mouse-ului pe punctul dorit pentru a vedea denumirea stației.

Apoi, faceți clic pentru a vedea observațiile și prognozele meteorologice.

Pentru a schimba harta: Pentru mărire, faceți clic pe butoanele verzi cu cruce neagră; pentru micșorare, pe butonul verde cu o liniuță; pentru hărți învecinate, pe săgețile verzi.


METAR-TAF: